Time;durP1;ratioP1;P1;durP2;ratioP2;P2;SDS_P1;SDS_P2;PMS_P1;PMS_P2;Temp;Humidity;BMP_temperature;BMP_pressure;BME280_temperature;BME280_humidity;BME280_pressure;Samples;Min_cycle;Max_cycle;Signal;HPM_P1;HPM_P2
2024/01/30 00:00:40;;;;;;;;;;;10.30;99.90;;;;;;5077105;28;20015;-82
2024/01/30 00:03:06;;;;;;;;;;;10.30;99.90;;;;;;5078562;28;20338;-80
2024/01/30 00:05:31;;;;;;;;;;;10.30;99.90;;;;;;5078176;28;19909;-82
2024/01/30 00:07:57;;;;;;;;;;;10.30;99.90;;;;;;5078514;28;19993;-81
2024/01/30 00:10:22;;;;;;;;;;;10.30;99.90;;;;;;5076752;28;19916;-80
2024/01/30 00:12:48;;;;;;;;;;;10.30;99.90;;;;;;5078674;28;19997;-78
2024/01/30 00:15:13;;;;;;;;;;;10.40;99.90;;;;;;5078362;28;19964;-81
2024/01/30 00:17:39;;;;;;;;;;;10.40;99.90;;;;;;5078667;28;19928;-81
2024/01/30 00:20:05;;;;;;;;;;;10.30;99.90;;;;;;5077049;28;19978;-78
2024/01/30 00:22:31;;;;;;;;;;;10.40;99.90;;;;;;5078446;28;19912;-81
2024/01/30 00:24:57;;;;;;;;;;;10.40;99.90;;;;;;5077767;28;19912;-81
2024/01/30 00:27:22;;;;;;;;;;;10.40;99.90;;;;;;5078591;28;19912;-81
2024/01/30 00:29:48;;;;;;;;;;;10.30;99.90;;;;;;5079741;28;19912;-79
2024/01/30 00:32:13;;;;;;;;;;;10.30;99.90;;;;;;5079146;28;20430;-82
2024/01/30 00:34:39;;;;;;;;;;;10.30;99.90;;;;;;5077345;28;19996;-80
2024/01/30 00:37:04;;;;;;;;;;;10.30;99.90;;;;;;5079422;28;19908;-82
2024/01/30 00:39:30;;;;;;;;;;;10.30;99.90;;;;;;5078676;28;19916;-81
2024/01/30 00:41:55;;;;;;;;;;;10.40;99.90;;;;;;5077731;28;20016;-82
2024/01/30 00:44:21;;;;;;;;;;;10.30;99.90;;;;;;5077664;28;19913;-78
2024/01/30 00:46:47;;;;;;;;;;;10.30;99.90;;;;;;5076717;28;20293;-81
2024/01/30 00:49:12;;;;;;;;;;;10.30;99.90;;;;;;5075886;28;19973;-81
2024/01/30 00:51:38;;;;;;;;;;;10.30;99.90;;;;;;5076272;28;20380;-82
2024/01/30 00:54:03;;;;;;;;;;;10.30;99.90;;;;;;5077396;28;20273;-84
2024/01/30 00:56:29;;;;;;;;;;;10.30;99.90;;;;;;5077417;28;20563;-79
2024/01/30 00:58:55;;;;;;;;;;;10.20;99.90;;;;;;5076062;28;19925;-79
2024/01/30 01:01:21;;;;;;;;;;;10.30;99.90;;;;;;5075435;28;19912;-79
2024/01/30 01:03:48;;;;;;;;;;;10.30;99.90;;;;;;5076989;28;20372;-81
2024/01/30 01:06:14;;;;;;;;;;;10.30;99.90;;;;;;5077457;28;19912;-84
2024/01/30 01:08:39;;;;;;;;;;;10.30;99.90;;;;;;5077057;28;19974;-81
2024/01/30 01:11:05;;;;;;;;;;;10.30;99.90;;;;;;5109911;28;19935;-82
2024/01/30 01:13:30;;;;;;;;;;;10.20;99.90;;;;;;5076996;28;19912;-80
2024/01/30 01:15:56;;;;;;;;;;;10.20;99.90;;;;;;5076985;28;19909;-78
2024/01/30 01:18:21;;;;;;;;;;;10.20;99.90;;;;;;5075188;28;20019;-82
2024/01/30 01:20:47;;;;;;;;;;;10.20;99.90;;;;;;5076943;28;19970;-82
2024/01/30 01:23:15;;;;;;;;;;;10.20;99.90;;;;;;5076483;28;19951;-82
2024/01/30 01:25:41;;;;;;;;;;;10.20;99.90;;;;;;5077009;28;19919;-79
2024/01/30 01:28:07;;;;;;;;;;;10.30;99.90;;;;;;5075304;28;19912;-79
2024/01/30 01:30:32;;;;;;;;;;;10.20;99.90;;;;;;5074788;28;20343;-80
2024/01/30 01:33:00;;;;;;;;;;;10.20;99.90;;;;;;5076868;28;19915;-79
2024/01/30 01:35:26;;;;;;;;;;;10.20;99.90;;;;;;5064977;28;20333;-82
2024/01/30 01:37:54;;;;;;;;;;;10.20;99.90;;;;;;5076454;28;20003;-82
2024/01/30 01:40:23;;;;;;;;;;;10.20;99.90;;;;;;5075378;28;20492;-81
2024/01/30 01:42:52;;;;;;;;;;;10.20;99.90;;;;;;5076413;28;19959;-80
2024/01/30 01:45:21;;;;;;;;;;;10.20;99.90;;;;;;5076626;28;19961;-78
2024/01/30 01:47:53;;;;;;;;;;;10.20;99.90;;;;;;5073373;28;19912;-77
2024/01/30 01:50:19;;;;;;;;;;;10.20;99.90;;;;;;5074978;28;19912;-79
2024/01/30 01:52:46;;;;;;;;;;;10.30;99.90;;;;;;5075177;28;19908;-83
2024/01/30 01:55:13;;;;;;;;;;;10.40;99.90;;;;;;5076799;28;20066;-80
2024/01/30 01:57:38;;;;;;;;;;;10.40;99.90;;;;;;5076137;28;19921;-79
2024/01/30 02:00:04;;;;;;;;;;;10.50;99.90;;;;;;5076471;28;19920;-83
2024/01/30 02:02:30;;;;;;;;;;;10.50;99.90;;;;;;5077544;28;19956;-83
2024/01/30 02:04:57;;;;;;;;;;;10.50;99.90;;;;;;5077060;28;19913;-83
2024/01/30 02:07:22;;;;;;;;;;;10.50;99.90;;;;;;5110019;28;19935;-80
2024/01/30 02:09:48;;;;;;;;;;;10.50;99.90;;;;;;5077136;28;19956;-80
2024/01/30 02:12:13;;;;;;;;;;;10.50;99.90;;;;;;5076864;28;20403;-78
2024/01/30 02:14:46;;;;;;;;;;;10.50;99.90;;;;;;5076145;28;20439;-79
2024/01/30 02:17:12;;;;;;;;;;;10.40;99.90;;;;;;5076661;28;19908;-81
2024/01/30 02:19:37;;;;;;;;;;;10.40;99.90;;;;;;5075724;28;19912;-82
2024/01/30 02:22:03;;;;;;;;;;;10.40;99.90;;;;;;5076245;28;20384;-81
2024/01/30 02:24:28;;;;;;;;;;;10.40;99.90;;;;;;5074433;28;19919;-81
2024/01/30 02:26:54;;;;;;;;;;;10.50;99.90;;;;;;5074677;28;19912;-80
2024/01/30 02:29:19;;;;;;;;;;;10.50;99.90;;;;;;5074674;28;19917;-82
2024/01/30 02:31:45;;;;;;;;;;;10.60;99.90;;;;;;5076129;28;20334;-79
2024/01/30 02:34:11;;;;;;;;;;;10.60;99.90;;;;;;5074164;28;20292;-80
2024/01/30 02:36:36;;;;;;;;;;;10.60;99.90;;;;;;5075660;28;19912;-80
2024/01/30 02:39:02;;;;;;;;;;;10.60;99.90;;;;;;5108466;28;19912;-81
2024/01/30 02:41:28;;;;;;;;;;;10.60;99.90;;;;;;5075853;28;19922;-80
2024/01/30 02:43:53;;;;;;;;;;;10.60;99.90;;;;;;5075940;28;19959;-81
2024/01/30 02:46:19;;;;;;;;;;;10.60;99.90;;;;;;5075892;28;19913;-80
2024/01/30 02:48:44;;;;;;;;;;;10.60;99.90;;;;;;5074235;28;19908;-81
2024/01/30 02:51:10;;;;;;;;;;;10.60;99.90;;;;;;5075763;28;19915;-79
2024/01/30 02:53:35;;;;;;;;;;;10.60;99.90;;;;;;5074214;28;19928;-82
2024/01/30 02:56:02;;;;;;;;;;;10.70;99.90;;;;;;5074347;28;19914;-83
2024/01/30 02:58:27;;;;;;;;;;;10.70;99.90;;;;;;5075786;28;19921;-82
2024/01/30 03:00:53;;;;;;;;;;;10.60;99.90;;;;;;5075619;28;19939;-78
2024/01/30 03:03:18;;;;;;;;;;;10.60;99.90;;;;;;5075393;28;20670;-79
2024/01/30 03:05:44;;;;;;;;;;;10.70;99.90;;;;;;5074211;28;19982;-81
2024/01/30 03:08:10;;;;;;;;;;;10.60;99.90;;;;;;5074302;28;19999;-81
2024/01/30 03:10:35;;;;;;;;;;;10.70;99.90;;;;;;5074334;28;20007;-82
2024/01/30 03:13:01;;;;;;;;;;;10.70;99.90;;;;;;5108051;28;19909;-80
2024/01/30 03:15:26;;;;;;;;;;;10.70;99.90;;;;;;5074349;28;20380;-79
2024/01/30 03:17:53;;;;;;;;;;;10.70;99.90;;;;;;5075650;28;20432;-80
2024/01/30 03:20:18;;;;;;;;;;;10.80;99.90;;;;;;5075188;28;19924;-80
2024/01/30 03:22:44;;;;;;;;;;;10.80;99.90;;;;;;5075415;28;19913;-79
2024/01/30 03:25:09;;;;;;;;;;;10.80;99.90;;;;;;5075396;28;19917;-81
2024/01/30 03:27:35;;;;;;;;;;;10.80;99.90;;;;;;5075197;28;20377;-80
2024/01/30 03:30:00;;;;;;;;;;;10.80;99.90;;;;;;5074276;28;20352;-80
2024/01/30 03:32:26;;;;;;;;;;;10.80;99.90;;;;;;5075555;28;20402;-79
2024/01/30 03:34:51;;;;;;;;;;;10.70;99.90;;;;;;5075289;28;19909;-81
2024/01/30 03:37:17;;;;;;;;;;;10.70;99.90;;;;;;5078593;28;19962;-81
2024/01/30 03:39:42;;;;;;;;;;;10.70;99.90;;;;;;5078156;28;19958;-80
2024/01/30 03:42:08;;;;;;;;;;;10.70;99.90;;;;;;5081018;28;19921;-80
2024/01/30 03:44:33;;;;;;;;;;;10.60;99.90;;;;;;5079819;28;19930;-82
2024/01/30 03:46:59;;;;;;;;;;;10.70;99.90;;;;;;5078375;28;19916;-80
2024/01/30 03:49:24;;;;;;;;;;;10.70;99.90;;;;;;5079117;28;19966;-81
2024/01/30 03:51:50;;;;;;;;;;;10.70;99.90;;;;;;5078872;28;19912;-81
2024/01/30 03:54:16;;;;;;;;;;;10.70;99.90;;;;;;5078804;28;19912;-83
2024/01/30 03:56:41;;;;;;;;;;;10.70;99.90;;;;;;5078840;28;20447;-80
2024/01/30 03:59:07;;;;;;;;;;;10.70;99.90;;;;;;5078571;28;19943;-81
2024/01/30 04:01:33;;;;;;;;;;;10.60;99.90;;;;;;5078363;28;19924;-79
2024/01/30 04:03:58;;;;;;;;;;;10.60;99.90;;;;;;5076509;28;19909;-79
2024/01/30 04:06:24;;;;;;;;;;;10.60;99.90;;;;;;5077126;28;19908;-79
2024/01/30 04:08:49;;;;;;;;;;;10.50;99.90;;;;;;5078214;28;19916;-82
2024/01/30 04:11:18;;;;;;;;;;;10.50;99.90;;;;;;5077185;28;19919;-84
2024/01/30 04:13:43;;;;;;;;;;;10.50;99.90;;;;;;5077051;28;19908;-82
2024/01/30 04:16:18;;;;;;;;;;;10.50;99.90;;;;;;5078432;28;19916;-84
2024/01/30 04:18:44;;;;;;;;;;;10.50;99.90;;;;;;5077944;28;19975;-80
2024/01/30 04:21:09;;;;;;;;;;;10.40;99.90;;;;;;5078164;28;20399;-81
2024/01/30 04:23:35;;;;;;;;;;;10.40;99.90;;;;;;5077658;28;19913;-80
2024/01/30 04:26:00;;;;;;;;;;;10.40;99.90;;;;;;5078070;28;20397;-79
2024/01/30 04:28:26;;;;;;;;;;;10.40;99.90;;;;;;5077049;28;20353;-80
2024/01/30 04:30:51;;;;;;;;;;;10.30;99.90;;;;;;5078342;28;19979;-82
2024/01/30 04:33:18;;;;;;;;;;;10.20;99.90;;;;;;5077478;28;19948;-82
2024/01/30 04:35:43;;;;;;;;;;;10.20;99.90;;;;;;5076555;28;19915;-80
2024/01/30 04:38:09;;;;;;;;;;;10.20;99.90;;;;;;5077576;28;19908;-81
2024/01/30 04:40:34;;;;;;;;;;;10.10;99.90;;;;;;5077549;28;19913;-81
2024/01/30 04:43:00;;;;;;;;;;;10.10;99.90;;;;;;5077380;28;19922;-79
2024/01/30 04:45:25;;;;;;;;;;;10.10;99.90;;;;;;5076093;28;19909;-78
2024/01/30 04:47:51;;;;;;;;;;;10.10;99.90;;;;;;5077246;28;19917;-82
2024/01/30 04:50:16;;;;;;;;;;;10.10;99.90;;;;;;5077562;28;19916;-82
2024/01/30 04:52:42;;;;;;;;;;;10.00;99.90;;;;;;5076011;28;19951;-84
2024/01/30 04:55:08;;;;;;;;;;;10.10;99.90;;;;;;5077201;28;19909;-79
2024/01/30 04:57:33;;;;;;;;;;;10.00;99.90;;;;;;5077309;28;19917;-78
2024/01/30 04:59:59;;;;;;;;;;;10.10;99.90;;;;;;5077165;28;19913;-81
2024/01/30 05:02:24;;;;;;;;;;;10.10;99.90;;;;;;5077081;28;19916;-79
2024/01/30 05:04:50;;;;;;;;;;;10.10;99.90;;;;;;5077143;28;19912;-80
2024/01/30 05:07:15;;;;;;;;;;;10.10;99.90;;;;;;5075950;28;19916;-77
2024/01/30 05:09:41;;;;;;;;;;;10.20;99.90;;;;;;5077463;28;19916;-79
2024/01/30 05:12:07;;;;;;;;;;;10.20;99.90;;;;;;5077315;28;19935;-78
2024/01/30 05:14:32;;;;;;;;;;;10.30;99.90;;;;;;5077908;28;19913;-82
2024/01/30 05:16:58;;;;;;;;;;;10.30;99.90;;;;;;5076863;28;20350;-80
2024/01/30 05:19:23;;;;;;;;;;;10.40;99.90;;;;;;5072784;28;19938;-81
2024/01/30 05:21:49;;;;;;;;;;;10.50;99.90;;;;;;5070859;28;19928;-83
2024/01/30 05:24:14;;;;;;;;;;;10.50;99.90;;;;;;5076418;28;19913;-82
2024/01/30 05:26:40;;;;;;;;;;;10.50;99.90;;;;;;5076184;28;19909;-81
2024/01/30 05:29:06;;;;;;;;;;;10.50;99.90;;;;;;5075719;28;19909;-82
2024/01/30 05:31:31;;;;;;;;;;;10.60;99.90;;;;;;5076884;28;19915;-82
2024/01/30 05:33:57;;;;;;;;;;;10.60;99.90;;;;;;5076685;28;19961;-80
2024/01/30 05:36:23;;;;;;;;;;;10.70;99.90;;;;;;5077077;28;19959;-78
2024/01/30 05:38:48;;;;;;;;;;;10.70;99.90;;;;;;5075479;28;19916;-81
2024/01/30 05:41:13;;;;;;;;;;;10.80;99.90;;;;;;5076977;28;19919;-81
2024/01/30 05:43:39;;;;;;;;;;;10.80;99.90;;;;;;5076485;28;19912;-80
2024/01/30 05:46:06;;;;;;;;;;;10.80;99.90;;;;;;5076740;28;19962;-79
2024/01/30 05:48:31;;;;;;;;;;;10.80;99.90;;;;;;5076405;28;20355;-81
2024/01/30 05:50:57;;;;;;;;;;;10.80;99.90;;;;;;5075396;28;19958;-81
2024/01/30 05:53:22;;;;;;;;;;;10.80;99.90;;;;;;5074667;28;19947;-81
2024/01/30 05:55:48;;;;;;;;;;;10.80;99.90;;;;;;5076395;28;20388;-81
2024/01/30 05:58:13;;;;;;;;;;;10.70;99.90;;;;;;5075367;28;19989;-82
2024/01/30 06:00:39;;;;;;;;;;;10.70;99.90;;;;;;5076273;28;20058;-82
2024/01/30 06:03:04;;;;;;;;;;;10.70;99.90;;;;;;5075822;28;19957;-82
2024/01/30 06:05:30;;;;;;;;;;;10.60;99.90;;;;;;5076111;28;20007;-82
2024/01/30 06:07:55;;;;;;;;;;;10.60;99.90;;;;;;5076119;28;20003;-81
2024/01/30 06:10:21;;;;;;;;;;;10.60;99.90;;;;;;5076350;28;19912;-80
2024/01/30 06:12:48;;;;;;;;;;;10.60;99.90;;;;;;5075139;28;19908;-80
2024/01/30 06:15:13;;;;;;;;;;;10.60;99.90;;;;;;5075647;28;19966;-82
2024/01/30 06:17:39;;;;;;;;;;;10.60;99.90;;;;;;5074749;28;19912;-81
2024/01/30 06:20:05;;;;;;;;;;;10.50;99.90;;;;;;5075749;28;19926;-82
2024/01/30 06:22:30;;;;;;;;;;;10.50;99.90;;;;;;5075672;28;19958;-81
2024/01/30 06:24:56;;;;;;;;;;;10.40;99.90;;;;;;5074740;28;19931;-83
2024/01/30 06:27:21;;;;;;;;;;;10.40;99.90;;;;;;5074454;28;20300;-81
2024/01/30 06:29:47;;;;;;;;;;;10.30;99.90;;;;;;5075967;28;19927;-82
2024/01/30 06:32:12;;;;;;;;;;;10.30;99.90;;;;;;5075863;28;19913;-81
2024/01/30 06:34:39;;;;;;;;;;;10.30;99.90;;;;;;5075597;28;19909;-80
2024/01/30 06:37:05;;;;;;;;;;;10.30;99.90;;;;;;5075497;28;19913;-79
2024/01/30 06:39:30;;;;;;;;;;;10.40;99.90;;;;;;5076034;28;20380;-80
2024/01/30 06:41:56;;;;;;;;;;;10.40;99.90;;;;;;5074450;28;19913;-79
2024/01/30 06:44:22;;;;;;;;;;;10.40;99.90;;;;;;5074594;28;19930;-80
2024/01/30 06:46:47;;;;;;;;;;;10.50;99.90;;;;;;5075568;28;20360;-83
2024/01/30 06:49:13;;;;;;;;;;;10.50;99.90;;;;;;5075682;28;19912;-80
2024/01/30 06:51:38;;;;;;;;;;;10.50;99.90;;;;;;5076006;28;19908;-81
2024/01/30 06:54:04;;;;;;;;;;;10.60;99.90;;;;;;5076644;28;19916;-79
2024/01/30 06:56:29;;;;;;;;;;;10.60;99.90;;;;;;5076161;28;19916;-81
2024/01/30 06:58:55;;;;;;;;;;;10.60;99.90;;;;;;5076215;28;19924;-78
2024/01/30 07:01:20;;;;;;;;;;;10.70;99.90;;;;;;5074447;28;19917;-77
2024/01/30 07:03:46;;;;;;;;;;;10.70;99.90;;;;;;5076113;28;19954;-81
2024/01/30 07:06:12;;;;;;;;;;;10.70;99.90;;;;;;5073422;28;19924;-80
2024/01/30 07:08:38;;;;;;;;;;;10.70;99.90;;;;;;5075582;28;19909;-82
2024/01/30 07:11:07;;;;;;;;;;;10.70;99.90;;;;;;5078217;28;19916;-81
2024/01/30 07:13:34;;;;;;;;;;;10.80;99.90;;;;;;5079575;28;19975;-83
2024/01/30 07:15:59;;;;;;;;;;;10.80;99.90;;;;;;5079558;28;19931;-80
2024/01/30 07:18:25;;;;;;;;;;;10.80;99.90;;;;;;5077711;28;20689;-82
2024/01/30 07:20:51;;;;;;;;;;;10.80;99.90;;;;;;5079540;28;20330;-79
2024/01/30 07:23:17;;;;;;;;;;;10.80;99.90;;;;;;5079150;28;19908;-81
2024/01/30 07:25:48;;;;;;;;;;;10.80;99.90;;;;;;5079456;28;19909;-82
2024/01/30 07:28:16;;;;;;;;;;;10.80;99.90;;;;;;5079413;28;19912;-80
2024/01/30 07:30:42;;;;;;;;;;;10.80;99.90;;;;;;5079480;28;19920;-81
2024/01/30 07:33:08;;;;;;;;;;;10.80;99.90;;;;;;5079133;28;19908;-82
2024/01/30 07:35:34;;;;;;;;;;;10.80;99.90;;;;;;5079410;28;19968;-81
2024/01/30 07:37:59;;;;;;;;;;;10.90;99.90;;;;;;5076148;28;20482;-82
2024/01/30 07:40:25;;;;;;;;;;;10.90;99.90;;;;;;5064571;28;20469;-82
2024/01/30 07:42:53;;;;;;;;;;;11.00;99.90;;;;;;5072985;28;20513;-80
2024/01/30 07:45:22;;;;;;;;;;;11.00;99.90;;;;;;5073536;28;19913;-80
2024/01/30 07:47:51;;;;;;;;;;;11.00;99.90;;;;;;5072370;28;19920;-81
2024/01/30 07:50:16;;;;;;;;;;;11.00;99.90;;;;;;5073024;28;19923;-80
2024/01/30 07:52:42;;;;;;;;;;;11.10;99.90;;;;;;5072579;28;19913;-80
2024/01/30 07:55:08;;;;;;;;;;;11.10;99.90;;;;;;5065695;28;20020;-80
2024/01/30 07:57:34;;;;;;;;;;;11.10;99.90;;;;;;5069814;28;19920;-82
2024/01/30 08:00:00;;;;;;;;;;;11.10;99.90;;;;;;5071553;28;19912;-82
2024/01/30 08:02:25;;;;;;;;;;;11.10;99.90;;;;;;5071586;28;19912;-78
2024/01/30 08:04:51;;;;;;;;;;;11.20;99.90;;;;;;5071403;28;19909;-81
2024/01/30 08:07:17;;;;;;;;;;;11.20;99.90;;;;;;5071100;28;19923;-82
2024/01/30 08:09:43;;;;;;;;;;;11.20;99.90;;;;;;5067697;28;19921;-80
2024/01/30 08:12:08;;;;;;;;;;;11.30;99.90;;;;;;5070459;28;19919;-81
2024/01/30 08:14:34;;;;;;;;;;;11.40;99.90;;;;;;5071537;28;19912;-79
2024/01/30 08:16:59;;;;;;;;;;;11.40;99.90;;;;;;5068388;28;19912;-82
2024/01/30 08:19:25;;;;;;;;;;;11.40;99.90;;;;;;5069727;28;20380;-81
2024/01/30 08:21:50;;;;;;;;;;;11.50;99.90;;;;;;5071408;28;20317;-82
2024/01/30 08:24:16;;;;;;;;;;;11.60;99.90;;;;;;5071516;28;19912;-82
2024/01/30 08:26:42;;;;;;;;;;;11.70;99.90;;;;;;5070537;28;19912;-82
2024/01/30 08:29:07;;;;;;;;;;;11.80;99.90;;;;;;5072615;28;19934;-81
2024/01/30 08:31:33;;;;;;;;;;;11.80;99.90;;;;;;5071858;28;19912;-83
2024/01/30 08:33:58;;;;;;;;;;;11.80;99.90;;;;;;5069512;28;19912;-81
2024/01/30 08:36:25;;;;;;;;;;;11.90;99.90;;;;;;5067824;28;19966;-73
2024/01/30 08:38:50;;;;;;;;;;;11.90;99.90;;;;;;5065946;28;19917;-83
2024/01/30 08:41:16;;;;;;;;;;;11.90;99.90;;;;;;5083007;28;19927;-86
2024/01/30 08:43:41;;;;;;;;;;;12.00;99.90;;;;;;5070016;28;20026;-84
2024/01/30 08:46:07;;;;;;;;;;;12.00;99.90;;;;;;5067329;28;20394;-85
2024/01/30 08:48:32;;;;;;;;;;;12.00;99.90;;;;;;5071744;28;20612;-84
2024/01/30 08:50:58;;;;;;;;;;;12.10;99.90;;;;;;5068324;28;19923;-84
2024/01/30 08:53:24;;;;;;;;;;;12.10;99.90;;;;;;5072269;28;20481;-83
2024/01/30 08:55:50;;;;;;;;;;;12.20;99.90;;;;;;5072501;28;19916;-83
2024/01/30 08:58:18;;;;;;;;;;;12.20;99.90;;;;;;5075824;28;19920;-83
2024/01/30 09:00:43;;;;;;;;;;;12.20;99.90;;;;;;5074701;28;19938;-83
2024/01/30 09:03:09;;;;;;;;;;;12.30;99.90;;;;;;5075519;28;19912;-79
2024/01/30 09:05:34;;;;;;;;;;;12.40;99.90;;;;;;5073692;28;19912;-80
2024/01/30 09:08:00;;;;;;;;;;;12.50;99.90;;;;;;5073787;28;19916;-84
2024/01/30 09:10:26;;;;;;;;;;;12.60;99.90;;;;;;5073491;28;19909;-83
2024/01/30 09:12:52;;;;;;;;;;;12.70;99.90;;;;;;5075549;28;19908;-84
2024/01/30 09:15:18;;;;;;;;;;;12.80;99.90;;;;;;5072344;28;20010;-83
2024/01/30 09:17:44;;;;;;;;;;;12.80;99.90;;;;;;5072787;28;19941;-79
2024/01/30 09:20:10;;;;;;;;;;;13.00;99.90;;;;;;5073581;28;19924;-81
2024/01/30 09:22:35;;;;;;;;;;;13.00;99.90;;;;;;5074136;28;19951;-83
2024/01/30 09:25:01;;;;;;;;;;;13.00;99.90;;;;;;5070534;28;19920;-81
2024/01/30 09:27:26;;;;;;;;;;;13.00;99.90;;;;;;5075948;28;19909;-82
2024/01/30 09:29:52;;;;;;;;;;;12.90;99.90;;;;;;5072463;28;20038;-81
2024/01/30 09:32:18;;;;;;;;;;;12.90;99.90;;;;;;5075768;28;19999;-81
2024/01/30 09:34:44;;;;;;;;;;;12.90;99.90;;;;;;5072654;28;20368;-84
2024/01/30 09:37:09;;;;;;;;;;;12.90;99.90;;;;;;5075607;28;20285;-81
2024/01/30 09:39:35;;;;;;;;;;;12.80;99.90;;;;;;5075527;28;19931;-83
2024/01/30 09:42:06;;;;;;;;;;;12.80;99.90;;;;;;5074901;28;20007;-81
2024/01/30 09:44:34;;;;;;;;;;;12.70;99.90;;;;;;5074369;28;19909;-81
2024/01/30 09:47:03;;;;;;;;;;;12.80;99.90;;;;;;5074272;28;20503;-82
2024/01/30 09:49:31;;;;;;;;;;;12.80;99.90;;;;;;5075108;28;20380;-84
2024/01/30 09:51:57;;;;;;;;;;;12.80;99.90;;;;;;5075263;28;19933;-81
2024/01/30 09:54:23;;;;;;;;;;;12.90;99.90;;;;;;5074442;28;20360;-83
2024/01/30 09:56:48;;;;;;;;;;;12.90;99.90;;;;;;5075050;28;20085;-81
2024/01/30 09:59:14;;;;;;;;;;;12.90;99.90;;;;;;5075081;28;20020;-81
2024/01/30 10:01:42;;;;;;;;;;;13.00;99.90;;;;;;5071146;28;20327;-82
2024/01/30 10:04:08;;;;;;;;;;;13.00;99.90;;;;;;5072970;28;20269;-80
2024/01/30 10:06:34;;;;;;;;;;;13.10;99.90;;;;;;5075114;28;19955;-81
2024/01/30 10:08:59;;;;;;;;;;;13.10;99.90;;;;;;5062574;28;19913;-83
2024/01/30 10:11:25;;;;;;;;;;;13.20;99.90;;;;;;5060728;28;19924;-79
2024/01/30 10:13:50;;;;;;;;;;;13.20;99.90;;;;;;5066826;28;19916;-81
2024/01/30 10:16:16;;;;;;;;;;;13.20;99.90;;;;;;5074186;28;19991;-80
2024/01/30 10:18:42;;;;;;;;;;;13.30;99.90;;;;;;5073345;28;19908;-82
2024/01/30 10:21:08;;;;;;;;;;;13.30;99.90;;;;;;5071512;28;19921;-80
2024/01/30 10:23:34;;;;;;;;;;;13.30;99.90;;;;;;5069930;28;20035;-79
2024/01/30 10:25:59;;;;;;;;;;;13.20;99.90;;;;;;5072553;28;19956;-82
2024/01/30 10:28:29;;;;;;;;;;;13.20;99.90;;;;;;5074898;28;20079;-83
2024/01/30 10:31:01;;;;;;;;;;;13.20;99.90;;;;;;5074605;28;19943;-83
2024/01/30 10:33:29;;;;;;;;;;;13.20;99.90;;;;;;5073176;28;19916;-83
2024/01/30 10:35:58;;;;;;;;;;;13.10;99.90;;;;;;5072260;28;19951;-82
2024/01/30 10:38:25;;;;;;;;;;;13.20;99.90;;;;;;5070115;28;19934;-84
2024/01/30 10:40:53;;;;;;;;;;;13.20;99.90;;;;;;5072880;28;19919;-82
2024/01/30 10:43:21;;;;;;;;;;;13.30;99.90;;;;;;5070318;28;19909;-84
2024/01/30 10:45:49;;;;;;;;;;;13.30;99.90;;;;;;5076908;28;19935;-82
2024/01/30 10:48:16;;;;;;;;;;;13.30;99.90;;;;;;5074909;28;20015;-82
2024/01/30 10:50:42;;;;;;;;;;;13.30;99.90;;;;;;5073393;28;19984;-82
2024/01/30 10:53:09;;;;;;;;;;;13.30;99.90;;;;;;5073159;28;19981;-82
2024/01/30 10:55:35;;;;;;;;;;;13.30;99.90;;;;;;5077820;28;19908;-80
2024/01/30 10:58:00;;;;;;;;;;;13.30;99.90;;;;;;5076772;28;19990;-82
2024/01/30 11:00:26;;;;;;;;;;;13.20;99.90;;;;;;5077246;28;20404;-82
2024/01/30 11:02:52;;;;;;;;;;;13.20;99.90;;;;;;5074994;28;19924;-78
2024/01/30 11:05:27;;;;;;;;;;;13.20;99.90;;;;;;5076692;28;20446;-81
2024/01/30 11:07:53;;;;;;;;;;;13.10;99.90;;;;;;5071947;28;19927;-78
2024/01/30 11:10:18;;;;;;;;;;;13.10;99.90;;;;;;5073123;28;19923;-80
2024/01/30 11:12:46;;;;;;;;;;;13.10;99.90;;;;;;5069149;28;19913;-80
2024/01/30 11:15:18;;;;;;;;;;;13.20;99.90;;;;;;5070236;28;19920;-81
2024/01/30 11:17:44;;;;;;;;;;;13.30;99.90;;;;;;5071362;28;20010;-78
2024/01/30 11:20:11;;;;;;;;;;;13.40;99.90;;;;;;5067989;28;20471;-78
2024/01/30 11:22:37;;;;;;;;;;;13.40;99.90;;;;;;5071215;28;20101;-80
2024/01/30 11:25:03;;;;;;;;;;;13.40;99.90;;;;;;5072611;28;19982;-80
2024/01/30 11:27:30;;;;;;;;;;;13.40;99.90;;;;;;5069439;28;19921;-82
2024/01/30 11:30:01;;;;;;;;;;;13.50;99.90;;;;;;5071452;28;19962;-81
2024/01/30 11:32:26;;;;;;;;;;;13.50;99.90;;;;;;5071350;28;20445;-78
2024/01/30 11:34:52;;;;;;;;;;;13.50;99.90;;;;;;5070406;28;19939;-79
2024/01/30 11:37:20;;;;;;;;;;;13.60;99.90;;;;;;5071529;28;19916;-80
2024/01/30 11:39:46;;;;;;;;;;;13.60;99.90;;;;;;5068277;28;19917;-80
2024/01/30 11:42:11;;;;;;;;;;;13.70;99.90;;;;;;5072005;28;19920;-78
2024/01/30 11:44:37;;;;;;;;;;;13.80;99.90;;;;;;5070333;28;19948;-79
2024/01/30 11:47:03;;;;;;;;;;;13.80;99.90;;;;;;5071071;28;20281;-78
2024/01/30 11:49:29;;;;;;;;;;;14.00;99.90;;;;;;5085678;28;20457;-81
2024/01/30 11:51:54;;;;;;;;;;;14.00;99.90;;;;;;5067858;28;19952;-82
2024/01/30 11:54:20;;;;;;;;;;;14.00;99.90;;;;;;5070835;28;19993;-80
2024/01/30 11:56:45;;;;;;;;;;;14.00;99.90;;;;;;5068668;28;19966;-80
2024/01/30 11:59:11;;;;;;;;;;;14.00;99.90;;;;;;5071647;28;19923;-81
2024/01/30 12:01:36;;;;;;;;;;;14.00;99.90;;;;;;5069349;28;19995;-82
2024/01/30 12:04:02;;;;;;;;;;;14.00;99.90;;;;;;5068755;28;19972;-82
2024/01/30 12:06:28;;;;;;;;;;;14.10;99.90;;;;;;5068780;28;19912;-79
2024/01/30 12:08:58;;;;;;;;;;;14.10;99.90;;;;;;5072018;28;19962;-80
2024/01/30 12:11:24;;;;;;;;;;;14.10;99.90;;;;;;5069061;28;19916;-79
2024/01/30 12:13:50;;;;;;;;;;;14.10;99.90;;;;;;5100876;28;19986;-81
2024/01/30 12:16:16;;;;;;;;;;;14.00;99.90;;;;;;5067869;28;19915;-81
2024/01/30 12:18:41;;;;;;;;;;;14.00;99.90;;;;;;5068974;28;19999;-79
2024/01/30 12:21:08;;;;;;;;;;;14.10;99.90;;;;;;5068631;28;20003;-82
2024/01/30 12:23:34;;;;;;;;;;;14.10;99.90;;;;;;5066828;28;19939;-79
2024/01/30 12:26:01;;;;;;;;;;;14.10;99.90;;;;;;5070397;28;19994;-83
2024/01/30 12:28:26;;;;;;;;;;;14.20;99.90;;;;;;5066859;28;19913;-80
2024/01/30 12:30:56;;;;;;;;;;;14.20;99.90;;;;;;5103525;28;19919;-77
2024/01/30 12:33:21;;;;;;;;;;;14.20;99.90;;;;;;5071034;28;19916;-81
2024/01/30 12:35:47;;;;;;;;;;;14.20;99.90;;;;;;5071093;28;19923;-84
2024/01/30 12:38:14;;;;;;;;;;;14.30;99.90;;;;;;5071729;28;20281;-82
2024/01/30 12:40:39;;;;;;;;;;;14.30;99.90;;;;;;5070450;28;19923;-83
2024/01/30 12:43:05;;;;;;;;;;;14.30;99.90;;;;;;5067714;28;19916;-82
2024/01/30 12:45:30;;;;;;;;;;;14.30;99.90;;;;;;5070190;28;20624;-80
2024/01/30 12:47:56;;;;;;;;;;;14.30;99.90;;;;;;5068882;28;19916;-80
2024/01/30 12:50:22;;;;;;;;;;;14.20;99.90;;;;;;5071585;28;19966;-81
2024/01/30 12:52:48;;;;;;;;;;;14.30;99.90;;;;;;5069330;28;19919;-78
2024/01/30 12:55:13;;;;;;;;;;;14.30;99.90;;;;;;5069501;28;19970;-80
2024/01/30 12:57:39;;;;;;;;;;;14.30;99.90;;;;;;5069214;28;20380;-78
2024/01/30 13:00:06;;;;;;;;;;;14.30;99.90;;;;;;5067189;28;20287;-81
2024/01/30 13:02:36;;;;;;;;;;;14.30;99.90;;;;;;5070848;28;20671;-79
2024/01/30 13:05:05;;;;;;;;;;;14.40;99.90;;;;;;5069055;28;19913;-80
2024/01/30 13:07:31;;;;;;;;;;;14.30;99.90;;;;;;5100652;28;19927;-78
2024/01/30 13:10:02;;;;;;;;;;;14.30;99.90;;;;;;5067448;28;19916;-79
2024/01/30 13:12:28;;;;;;;;;;;14.40;99.90;;;;;;5068095;28;19912;-78
2024/01/30 13:14:53;;;;;;;;;;;14.40;99.90;;;;;;5070920;28;20374;-77
2024/01/30 13:17:19;;;;;;;;;;;14.40;99.90;;;;;;5063709;28;19927;-78
2024/01/30 13:19:44;;;;;;;;;;;14.30;99.90;;;;;;5064854;28;20296;-78
2024/01/30 13:22:10;;;;;;;;;;;14.30;99.90;;;;;;5072967;28;19921;-77
2024/01/30 13:24:35;;;;;;;;;;;14.30;99.90;;;;;;5072515;28;19908;-79
2024/01/30 13:27:01;;;;;;;;;;;14.30;99.90;;;;;;5075928;28;19912;-78
2024/01/30 13:29:26;;;;;;;;;;;14.30;99.90;;;;;;5074830;28;19961;-79
2024/01/30 13:31:52;;;;;;;;;;;14.30;99.90;;;;;;5073814;28;19912;-81
2024/01/30 13:34:18;;;;;;;;;;;14.30;99.90;;;;;;5074127;28;19962;-78
2024/01/30 13:36:44;;;;;;;;;;;14.30;99.90;;;;;;5071297;28;19913;-78
2024/01/30 13:39:12;;;;;;;;;;;14.30;99.90;;;;;;5075341;28;19947;-78
2024/01/30 13:41:38;;;;;;;;;;;14.30;99.90;;;;;;5073844;28;20005;-80
2024/01/30 13:44:03;;;;;;;;;;;14.30;99.90;;;;;;5072656;28;19912;-78
2024/01/30 13:46:29;;;;;;;;;;;14.30;99.90;;;;;;5071279;28;19908;-77
2024/01/30 13:48:55;;;;;;;;;;;14.30;99.90;;;;;;5073714;28;19909;-79
2024/01/30 13:51:20;;;;;;;;;;;14.40;99.90;;;;;;5068694;28;19922;-79
2024/01/30 13:53:46;;;;;;;;;;;14.50;99.90;;;;;;5072251;28;19917;-78
2024/01/30 13:56:11;;;;;;;;;;;14.50;99.90;;;;;;5073594;28;19918;-78
2024/01/30 13:58:37;;;;;;;;;;;14.40;99.90;;;;;;5068803;28;19927;-78
2024/01/30 14:01:03;;;;;;;;;;;14.40;99.90;;;;;;5071758;28;20000;-76
2024/01/30 14:03:28;;;;;;;;;;;14.30;99.90;;;;;;5074698;28;19920;-76
2024/01/30 14:05:54;;;;;;;;;;;14.30;99.90;;;;;;5067813;28;20633;-78
2024/01/30 14:08:21;;;;;;;;;;;14.30;99.90;;;;;;5073229;28;19916;-77